sensor_id;sensor_type;location;lat;lon;timestamp;P1;durP1;ratioP1;P2;durP2;ratioP2
2940;SDS011;1480;51.456;6.670;2023-03-26T00:01:19;19.00;;;5.00;;
2940;SDS011;1480;51.456;6.670;2023-03-26T00:03:47;16.87;;;5.67;;
2940;SDS011;1480;51.456;6.670;2023-03-26T00:06:18;17.30;;;5.53;;
2940;SDS011;1480;51.456;6.670;2023-03-26T00:08:47;14.27;;;4.70;;
2940;SDS011;1480;51.456;6.670;2023-03-26T00:11:14;19.13;;;5.10;;
2940;SDS011;1480;51.456;6.670;2023-03-26T00:13:43;16.23;;;5.07;;
2940;SDS011;1480;51.456;6.670;2023-03-26T00:16:11;16.73;;;5.30;;
2940;SDS011;1480;51.456;6.670;2023-03-26T00:18:39;21.73;;;6.30;;
2940;SDS011;1480;51.456;6.670;2023-03-26T00:21:12;12.43;;;5.53;;
2940;SDS011;1480;51.456;6.670;2023-03-26T00:23:41;18.83;;;5.17;;
2940;SDS011;1480;51.456;6.670;2023-03-26T00:26:08;19.33;;;5.63;;
2940;SDS011;1480;51.456;6.670;2023-03-26T00:28:36;17.37;;;4.40;;
2940;SDS011;1480;51.456;6.670;2023-03-26T00:31:05;19.00;;;5.07;;
2940;SDS011;1480;51.456;6.670;2023-03-26T00:33:32;19.50;;;5.17;;
2940;SDS011;1480;51.456;6.670;2023-03-26T00:36:04;21.00;;;5.10;;
2940;SDS011;1480;51.456;6.670;2023-03-26T00:38:34;18.57;;;4.70;;
2940;SDS011;1480;51.456;6.670;2023-03-26T00:41:03;24.23;;;3.93;;
2940;SDS011;1480;51.456;6.670;2023-03-26T00:43:32;20.30;;;4.83;;
2940;SDS011;1480;51.456;6.670;2023-03-26T00:46:00;12.40;;;4.40;;
2940;SDS011;1480;51.456;6.670;2023-03-26T00:48:27;19.50;;;4.93;;
2940;SDS011;1480;51.456;6.670;2023-03-26T00:50:55;12.80;;;4.80;;
2940;SDS011;1480;51.456;6.670;2023-03-26T00:53:23;19.43;;;5.97;;
2940;SDS011;1480;51.456;6.670;2023-03-26T00:55:50;27.23;;;6.67;;
2940;SDS011;1480;51.456;6.670;2023-03-26T00:58:17;16.33;;;4.00;;
2940;SDS011;1480;51.456;6.670;2023-03-26T01:00:51;26.53;;;5.70;;
2940;SDS011;1480;51.456;6.670;2023-03-26T01:03:21;19.20;;;4.90;;
2940;SDS011;1480;51.456;6.670;2023-03-26T01:05:50;23.03;;;6.63;;
2940;SDS011;1480;51.456;6.670;2023-03-26T01:08:22;26.97;;;5.87;;
2940;SDS011;1480;51.456;6.670;2023-03-26T01:10:54;27.87;;;5.30;;
2940;SDS011;1480;51.456;6.670;2023-03-26T01:13:29;11.73;;;4.40;;
2940;SDS011;1480;51.456;6.670;2023-03-26T01:15:57;17.80;;;3.87;;
2940;SDS011;1480;51.456;6.670;2023-03-26T01:18:26;20.97;;;4.77;;
2940;SDS011;1480;51.456;6.670;2023-03-26T01:20:59;22.83;;;5.90;;
2940;SDS011;1480;51.456;6.670;2023-03-26T01:23:37;23.00;;;5.60;;
2940;SDS011;1480;51.456;6.670;2023-03-26T01:26:10;26.57;;;5.47;;
2940;SDS011;1480;51.456;6.670;2023-03-26T01:28:42;19.10;;;4.43;;
2940;SDS011;1480;51.456;6.670;2023-03-26T01:31:11;28.53;;;6.07;;
2940;SDS011;1480;51.456;6.670;2023-03-26T01:33:44;16.43;;;4.50;;
2940;SDS011;1480;51.456;6.670;2023-03-26T01:36:16;19.87;;;4.27;;
2940;SDS011;1480;51.456;6.670;2023-03-26T01:38:47;19.83;;;4.60;;
2940;SDS011;1480;51.456;6.670;2023-03-26T01:41:20;24.83;;;5.53;;
2940;SDS011;1480;51.456;6.670;2023-03-26T01:43:53;26.57;;;6.10;;
2940;SDS011;1480;51.456;6.670;2023-03-26T01:46:24;19.67;;;4.80;;
2940;SDS011;1480;51.456;6.670;2023-03-26T01:48:53;12.30;;;4.47;;
2940;SDS011;1480;51.456;6.670;2023-03-26T01:51:26;12.37;;;4.30;;
2940;SDS011;1480;51.456;6.670;2023-03-26T01:53:55;28.40;;;4.87;;
2940;SDS011;1480;51.456;6.670;2023-03-26T01:56:26;14.57;;;4.30;;
2940;SDS011;1480;51.456;6.670;2023-03-26T01:59:04;20.50;;;6.33;;
2940;SDS011;1480;51.456;6.670;2023-03-26T02:01:35;16.83;;;5.27;;
2940;SDS011;1480;51.456;6.670;2023-03-26T02:04:10;18.10;;;4.20;;
2940;SDS011;1480;51.456;6.670;2023-03-26T02:06:41;15.47;;;3.60;;
2940;SDS011;1480;51.456;6.670;2023-03-26T02:09:10;13.27;;;4.03;;
2940;SDS011;1480;51.456;6.670;2023-03-26T02:11:40;10.70;;;3.40;;
2940;SDS011;1480;51.456;6.670;2023-03-26T02:14:07;15.63;;;4.57;;
2940;SDS011;1480;51.456;6.670;2023-03-26T02:16:34;16.03;;;3.80;;
2940;SDS011;1480;51.456;6.670;2023-03-26T02:19:02;10.03;;;4.13;;
2940;SDS011;1480;51.456;6.670;2023-03-26T02:21:34;18.30;;;4.20;;
2940;SDS011;1480;51.456;6.670;2023-03-26T02:24:02;14.27;;;5.10;;
2940;SDS011;1480;51.456;6.670;2023-03-26T02:26:33;11.20;;;4.40;;
2940;SDS011;1480;51.456;6.670;2023-03-26T02:29:09;25.97;;;5.00;;
2940;SDS011;1480;51.456;6.670;2023-03-26T02:31:39;22.93;;;4.70;;
2940;SDS011;1480;51.456;6.670;2023-03-26T02:34:07;17.93;;;4.90;;
2940;SDS011;1480;51.456;6.670;2023-03-26T02:36:36;15.20;;;5.40;;
2940;SDS011;1480;51.456;6.670;2023-03-26T02:39:03;15.43;;;5.17;;
2940;SDS011;1480;51.456;6.670;2023-03-26T02:41:34;26.83;;;4.97;;
2940;SDS011;1480;51.456;6.670;2023-03-26T02:44:05;21.90;;;4.70;;
2940;SDS011;1480;51.456;6.670;2023-03-26T02:46:52;15.63;;;4.60;;
2940;SDS011;1480;51.456;6.670;2023-03-26T02:49:45;15.00;;;4.50;;
2940;SDS011;1480;51.456;6.670;2023-03-26T02:52:19;29.37;;;4.83;;
2940;SDS011;1480;51.456;6.670;2023-03-26T02:54:48;18.40;;;4.90;;
2940;SDS011;1480;51.456;6.670;2023-03-26T02:57:17;20.03;;;4.43;;
2940;SDS011;1480;51.456;6.670;2023-03-26T02:59:47;21.00;;;5.47;;
2940;SDS011;1480;51.456;6.670;2023-03-26T03:02:34;19.10;;;4.60;;
2940;SDS011;1480;51.456;6.670;2023-03-26T03:05:21;15.90;;;4.87;;
2940;SDS011;1480;51.456;6.670;2023-03-26T03:08:01;16.40;;;4.70;;
2940;SDS011;1480;51.456;6.670;2023-03-26T03:10:29;17.43;;;5.10;;
2940;SDS011;1480;51.456;6.670;2023-03-26T03:13:16;12.90;;;3.90;;
2940;SDS011;1480;51.456;6.670;2023-03-26T03:15:43;23.43;;;4.90;;
2940;SDS011;1480;51.456;6.670;2023-03-26T03:18:11;13.43;;;4.07;;
2940;SDS011;1480;51.456;6.670;2023-03-26T03:20:38;28.80;;;7.20;;
2940;SDS011;1480;51.456;6.670;2023-03-26T03:23:04;20.43;;;6.57;;
2940;SDS011;1480;51.456;6.670;2023-03-26T03:25:31;17.60;;;4.07;;
2940;SDS011;1480;51.456;6.670;2023-03-26T03:27:59;23.47;;;5.53;;
2940;SDS011;1480;51.456;6.670;2023-03-26T03:30:25;14.43;;;5.53;;
2940;SDS011;1480;51.456;6.670;2023-03-26T03:33:06;21.07;;;5.17;;
2940;SDS011;1480;51.456;6.670;2023-03-26T03:35:35;20.37;;;5.53;;
2940;SDS011;1480;51.456;6.670;2023-03-26T03:38:01;31.13;;;6.97;;
2940;SDS011;1480;51.456;6.670;2023-03-26T03:40:37;19.30;;;7.07;;
2940;SDS011;1480;51.456;6.670;2023-03-26T03:43:05;20.00;;;4.80;;
2940;SDS011;1480;51.456;6.670;2023-03-26T03:45:40;14.63;;;4.77;;
2940;SDS011;1480;51.456;6.670;2023-03-26T03:48:27;18.83;;;5.00;;
2940;SDS011;1480;51.456;6.670;2023-03-26T03:50:56;15.60;;;5.90;;
2940;SDS011;1480;51.456;6.670;2023-03-26T03:53:30;23.83;;;5.87;;
2940;SDS011;1480;51.456;6.670;2023-03-26T03:55:58;12.93;;;3.90;;
2940;SDS011;1480;51.456;6.670;2023-03-26T03:58:46;18.70;;;5.90;;
2940;SDS011;1480;51.456;6.670;2023-03-26T04:01:18;7.63;;;3.67;;
2940;SDS011;1480;51.456;6.670;2023-03-26T04:04:00;15.20;;;4.67;;
2940;SDS011;1480;51.456;6.670;2023-03-26T04:06:43;19.50;;;5.53;;
2940;SDS011;1480;51.456;6.670;2023-03-26T04:09:12;17.10;;;5.20;;
2940;SDS011;1480;51.456;6.670;2023-03-26T04:11:39;13.57;;;4.67;;
2940;SDS011;1480;51.456;6.670;2023-03-26T04:14:14;10.70;;;4.00;;
2940;SDS011;1480;51.456;6.670;2023-03-26T04:17:02;22.40;;;5.50;;
2940;SDS011;1480;51.456;6.670;2023-03-26T04:19:31;24.50;;;5.63;;
2940;SDS011;1480;51.456;6.670;2023-03-26T04:22:00;17.20;;;4.60;;
2940;SDS011;1480;51.456;6.670;2023-03-26T04:24:31;16.13;;;3.87;;
2940;SDS011;1480;51.456;6.670;2023-03-26T04:27:24;17.03;;;4.57;;
2940;SDS011;1480;51.456;6.670;2023-03-26T04:30:03;17.07;;;5.17;;
2940;SDS011;1480;51.456;6.670;2023-03-26T04:32:32;13.23;;;4.10;;
2940;SDS011;1480;51.456;6.670;2023-03-26T04:35:00;16.00;;;4.83;;
2940;SDS011;1480;51.456;6.670;2023-03-26T04:37:31;13.57;;;4.23;;
2940;SDS011;1480;51.456;6.670;2023-03-26T04:40:06;12.70;;;4.80;;
2940;SDS011;1480;51.456;6.670;2023-03-26T04:42:47;18.90;;;4.80;;
2940;SDS011;1480;51.456;6.670;2023-03-26T04:45:23;14.63;;;4.07;;
2940;SDS011;1480;51.456;6.670;2023-03-26T04:47:54;14.10;;;4.10;;
2940;SDS011;1480;51.456;6.670;2023-03-26T04:50:22;22.20;;;5.90;;
2940;SDS011;1480;51.456;6.670;2023-03-26T04:52:51;12.53;;;4.73;;
2940;SDS011;1480;51.456;6.670;2023-03-26T04:55:40;19.57;;;5.30;;
2940;SDS011;1480;51.456;6.670;2023-03-26T04:58:19;14.40;;;4.53;;
2940;SDS011;1480;51.456;6.670;2023-03-26T05:00:55;16.53;;;5.17;;
2940;SDS011;1480;51.456;6.670;2023-03-26T05:03:26;9.83;;;4.50;;
2940;SDS011;1480;51.456;6.670;2023-03-26T05:05:58;14.13;;;5.20;;
2940;SDS011;1480;51.456;6.670;2023-03-26T05:08:26;15.07;;;4.23;;
2940;SDS011;1480;51.456;6.670;2023-03-26T05:10:54;13.63;;;4.70;;
2940;SDS011;1480;51.456;6.670;2023-03-26T05:13:30;12.73;;;3.60;;
2940;SDS011;1480;51.456;6.670;2023-03-26T05:16:03;16.90;;;5.13;;
2940;SDS011;1480;51.456;6.670;2023-03-26T05:18:46;15.33;;;4.63;;
2940;SDS011;1480;51.456;6.670;2023-03-26T05:21:13;18.53;;;4.70;;
2940;SDS011;1480;51.456;6.670;2023-03-26T05:23:41;17.57;;;4.17;;
2940;SDS011;1480;51.456;6.670;2023-03-26T05:26:19;8.37;;;3.97;;
2940;SDS011;1480;51.456;6.670;2023-03-26T05:28:46;16.60;;;5.13;;
2940;SDS011;1480;51.456;6.670;2023-03-26T05:31:20;14.73;;;5.40;;
2940;SDS011;1480;51.456;6.670;2023-03-26T05:33:52;17.23;;;4.40;;
2940;SDS011;1480;51.456;6.670;2023-03-26T05:36:19;15.27;;;4.47;;
2940;SDS011;1480;51.456;6.670;2023-03-26T05:38:54;20.17;;;5.00;;
2940;SDS011;1480;51.456;6.670;2023-03-26T05:41:47;11.73;;;4.30;;
2940;SDS011;1480;51.456;6.670;2023-03-26T05:44:15;12.47;;;5.67;;
2940;SDS011;1480;51.456;6.670;2023-03-26T05:46:41;18.70;;;4.27;;
2940;SDS011;1480;51.456;6.670;2023-03-26T05:49:13;13.60;;;4.23;;
2940;SDS011;1480;51.456;6.670;2023-03-26T05:51:40;10.13;;;4.33;;
2940;SDS011;1480;51.456;6.670;2023-03-26T05:54:28;13.23;;;4.30;;
2940;SDS011;1480;51.456;6.670;2023-03-26T05:57:13;11.20;;;4.17;;
2940;SDS011;1480;51.456;6.670;2023-03-26T05:59:59;22.93;;;4.90;;
2940;SDS011;1480;51.456;6.670;2023-03-26T06:02:42;11.00;;;4.37;;
2940;SDS011;1480;51.456;6.670;2023-03-26T06:05:37;13.73;;;5.40;;
2940;SDS011;1480;51.456;6.670;2023-03-26T06:08:14;10.00;;;4.20;;
2940;SDS011;1480;51.456;6.670;2023-03-26T06:10:48;15.60;;;4.30;;
2940;SDS011;1480;51.456;6.670;2023-03-26T06:13:15;15.10;;;4.43;;
2940;SDS011;1480;51.456;6.670;2023-03-26T06:15:44;12.83;;;5.10;;
2940;SDS011;1480;51.456;6.670;2023-03-26T06:18:34;19.03;;;5.13;;
2940;SDS011;1480;51.456;6.670;2023-03-26T06:21:24;24.07;;;6.57;;
2940;SDS011;1480;51.456;6.670;2023-03-26T06:23:56;12.50;;;4.57;;
2940;SDS011;1480;51.456;6.670;2023-03-26T06:26:47;10.60;;;4.97;;
2940;SDS011;1480;51.456;6.670;2023-03-26T06:29:34;15.23;;;5.80;;
2940;SDS011;1480;51.456;6.670;2023-03-26T06:32:11;19.97;;;5.33;;
2940;SDS011;1480;51.456;6.670;2023-03-26T06:34:48;14.57;;;5.30;;
2940;SDS011;1480;51.456;6.670;2023-03-26T06:37:16;17.47;;;5.00;;
2940;SDS011;1480;51.456;6.670;2023-03-26T06:39:44;17.30;;;5.70;;
2940;SDS011;1480;51.456;6.670;2023-03-26T06:42:18;26.17;;;7.13;;
2940;SDS011;1480;51.456;6.670;2023-03-26T06:45:14;14.33;;;4.83;;
2940;SDS011;1480;51.456;6.670;2023-03-26T06:48:15;20.27;;;5.53;;
2940;SDS011;1480;51.456;6.670;2023-03-26T06:50:55;15.77;;;4.50;;
2940;SDS011;1480;51.456;6.670;2023-03-26T06:53:45;10.53;;;4.17;;
2940;SDS011;1480;51.456;6.670;2023-03-26T06:56:24;12.97;;;5.97;;
2940;SDS011;1480;51.456;6.670;2023-03-26T06:59:13;15.03;;;4.60;;
2940;SDS011;1480;51.456;6.670;2023-03-26T07:01:58;21.27;;;5.93;;
2940;SDS011;1480;51.456;6.670;2023-03-26T07:04:43;17.00;;;4.37;;
2940;SDS011;1480;51.456;6.670;2023-03-26T07:07:33;20.47;;;4.80;;
2940;SDS011;1480;51.456;6.670;2023-03-26T07:10:19;15.13;;;7.00;;
2940;SDS011;1480;51.456;6.670;2023-03-26T07:13:12;18.30;;;4.70;;
2940;SDS011;1480;51.456;6.670;2023-03-26T07:15:59;20.60;;;5.10;;
2940;SDS011;1480;51.456;6.670;2023-03-26T07:18:38;13.83;;;4.50;;
2940;SDS011;1480;51.456;6.670;2023-03-26T07:21:08;11.80;;;5.37;;
2940;SDS011;1480;51.456;6.670;2023-03-26T07:23:35;18.80;;;5.00;;
2940;SDS011;1480;51.456;6.670;2023-03-26T07:26:22;19.10;;;5.77;;
2940;SDS011;1480;51.456;6.670;2023-03-26T07:29:12;13.37;;;4.50;;
2940;SDS011;1480;51.456;6.670;2023-03-26T07:32:20;11.70;;;4.13;;
2940;SDS011;1480;51.456;6.670;2023-03-26T07:35:04;16.37;;;4.40;;
2940;SDS011;1480;51.456;6.670;2023-03-26T07:37:57;17.53;;;5.03;;
2940;SDS011;1480;51.456;6.670;2023-03-26T07:40:52;17.60;;;5.23;;
2940;SDS011;1480;51.456;6.670;2023-03-26T07:43:38;21.20;;;5.70;;
2940;SDS011;1480;51.456;6.670;2023-03-26T07:46:29;24.77;;;5.20;;
2940;SDS011;1480;51.456;6.670;2023-03-26T07:49:18;15.87;;;6.00;;
2940;SDS011;1480;51.456;6.670;2023-03-26T07:52:04;13.70;;;5.40;;
2940;SDS011;1480;51.456;6.670;2023-03-26T07:54:43;19.80;;;5.60;;
2940;SDS011;1480;51.456;6.670;2023-03-26T07:57:33;13.67;;;6.30;;
2940;SDS011;1480;51.456;6.670;2023-03-26T08:00:36;22.70;;;5.60;;
2940;SDS011;1480;51.456;6.670;2023-03-26T08:03:27;16.90;;;5.47;;
2940;SDS011;1480;51.456;6.670;2023-03-26T08:06:17;14.70;;;5.20;;
2940;SDS011;1480;51.456;6.670;2023-03-26T08:09:08;23.00;;;6.77;;
2940;SDS011;1480;51.456;6.670;2023-03-26T08:12:18;23.37;;;6.23;;
2940;SDS011;1480;51.456;6.670;2023-03-26T08:14:49;14.37;;;5.20;;
2940;SDS011;1480;51.456;6.670;2023-03-26T08:17:22;20.90;;;5.60;;
2940;SDS011;1480;51.456;6.670;2023-03-26T08:19:56;16.93;;;5.73;;
2940;SDS011;1480;51.456;6.670;2023-03-26T08:22:32;21.40;;;5.77;;
2940;SDS011;1480;51.456;6.670;2023-03-26T08:27:56;16.30;;;5.37;;
2940;SDS011;1480;51.456;6.670;2023-03-26T08:30:29;15.93;;;5.93;;
2940;SDS011;1480;51.456;6.670;2023-03-26T08:32:57;18.87;;;5.37;;
2940;SDS011;1480;51.456;6.670;2023-03-26T08:35:25;12.60;;;5.30;;
2940;SDS011;1480;51.456;6.670;2023-03-26T08:37:54;17.23;;;6.00;;
2940;SDS011;1480;51.456;6.670;2023-03-26T08:40:26;19.33;;;5.60;;
2940;SDS011;1480;51.456;6.670;2023-03-26T08:43:25;19.17;;;6.13;;
2940;SDS011;1480;51.456;6.670;2023-03-26T08:46:09;13.83;;;5.83;;
2940;SDS011;1480;51.456;6.670;2023-03-26T08:52:15;19.10;;;5.40;;
2940;SDS011;1480;51.456;6.670;2023-03-26T08:54:59;14.47;;;5.80;;
2940;SDS011;1480;51.456;6.670;2023-03-26T08:58:06;13.87;;;4.53;;
2940;SDS011;1480;51.456;6.670;2023-03-26T09:01:04;10.03;;;5.10;;
2940;SDS011;1480;51.456;6.670;2023-03-26T09:03:44;12.00;;;5.40;;
2940;SDS011;1480;51.456;6.670;2023-03-26T09:06:39;15.43;;;6.70;;
2940;SDS011;1480;51.456;6.670;2023-03-26T09:09:50;17.30;;;5.70;;
2940;SDS011;1480;51.456;6.670;2023-03-26T09:12:45;18.87;;;5.60;;
2940;SDS011;1480;51.456;6.670;2023-03-26T09:15:42;16.93;;;5.30;;
2940;SDS011;1480;51.456;6.670;2023-03-26T09:22:06;17.50;;;7.27;;
2940;SDS011;1480;51.456;6.670;2023-03-26T09:24:57;18.07;;;6.30;;
2940;SDS011;1480;51.456;6.670;2023-03-26T09:27:54;18.00;;;6.37;;
2940;SDS011;1480;51.456;6.670;2023-03-26T09:30:35;10.63;;;5.20;;
2940;SDS011;1480;51.456;6.670;2023-03-26T09:36:23;10.43;;;5.03;;
2940;SDS011;1480;51.456;6.670;2023-03-26T09:38:58;13.53;;;5.17;;
2940;SDS011;1480;51.456;6.670;2023-03-26T09:41:34;12.83;;;6.80;;
2940;SDS011;1480;51.456;6.670;2023-03-26T09:46:56;17.93;;;5.50;;
2940;SDS011;1480;51.456;6.670;2023-03-26T09:49:38;14.70;;;5.80;;
2940;SDS011;1480;51.456;6.670;2023-03-26T09:52:23;14.43;;;3.80;;
2940;SDS011;1480;51.456;6.670;2023-03-26T09:55:03;13.13;;;5.37;;
2940;SDS011;1480;51.456;6.670;2023-03-26T09:58:05;10.43;;;4.73;;
2940;SDS011;1480;51.456;6.670;2023-03-26T10:00:39;8.87;;;4.17;;
2940;SDS011;1480;51.456;6.670;2023-03-26T10:03:25;9.00;;;3.60;;
2940;SDS011;1480;51.456;6.670;2023-03-26T10:05:57;10.23;;;3.90;;
2940;SDS011;1480;51.456;6.670;2023-03-26T10:08:43;12.07;;;4.63;;
2940;SDS011;1480;51.456;6.670;2023-03-26T10:11:21;9.87;;;3.60;;
2940;SDS011;1480;51.456;6.670;2023-03-26T10:13:59;6.53;;;2.57;;
2940;SDS011;1480;51.456;6.670;2023-03-26T10:16:33;4.17;;;3.10;;
2940;SDS011;1480;51.456;6.670;2023-03-26T10:19:20;6.17;;;3.03;;
2940;SDS011;1480;51.456;6.670;2023-03-26T10:21:54;8.40;;;3.23;;
2940;SDS011;1480;51.456;6.670;2023-03-26T10:24:31;8.40;;;2.53;;
2940;SDS011;1480;51.456;6.670;2023-03-26T10:27:23;9.57;;;2.90;;
2940;SDS011;1480;51.456;6.670;2023-03-26T10:30:06;3.20;;;1.90;;
2940;SDS011;1480;51.456;6.670;2023-03-26T10:33:01;5.90;;;2.63;;
2940;SDS011;1480;51.456;6.670;2023-03-26T10:35:39;3.40;;;2.03;;
2940;SDS011;1480;51.456;6.670;2023-03-26T10:38:15;3.57;;;1.93;;
2940;SDS011;1480;51.456;6.670;2023-03-26T10:40:47;5.27;;;2.10;;
2940;SDS011;1480;51.456;6.670;2023-03-26T10:43:23;6.00;;;1.80;;
2940;SDS011;1480;51.456;6.670;2023-03-26T10:49:31;6.37;;;3.20;;
2940;SDS011;1480;51.456;6.670;2023-03-26T10:52:05;2.87;;;2.27;;
2940;SDS011;1480;51.456;6.670;2023-03-26T10:54:45;3.70;;;2.03;;
2940;SDS011;1480;51.456;6.670;2023-03-26T10:57:22;3.27;;;2.30;;
2940;SDS011;1480;51.456;6.670;2023-03-26T10:59:54;7.60;;;1.90;;
2940;SDS011;1480;51.456;6.670;2023-03-26T11:02:26;5.17;;;2.17;;
2940;SDS011;1480;51.456;6.670;2023-03-26T11:04:58;5.10;;;2.13;;
2940;SDS011;1480;51.456;6.670;2023-03-26T11:07:32;2.40;;;1.10;;
2940;SDS011;1480;51.456;6.670;2023-03-26T11:10:04;1.63;;;1.10;;
2940;SDS011;1480;51.456;6.670;2023-03-26T11:12:34;3.37;;;1.40;;
2940;SDS011;1480;51.456;6.670;2023-03-26T11:15:10;5.07;;;1.30;;
2940;SDS011;1480;51.456;6.670;2023-03-26T11:17:44;2.00;;;1.27;;
2940;SDS011;1480;51.456;6.670;2023-03-26T11:20:17;3.43;;;1.60;;
2940;SDS011;1480;51.456;6.670;2023-03-26T11:22:49;2.90;;;1.20;;
2940;SDS011;1480;51.456;6.670;2023-03-26T11:25:34;5.00;;;1.80;;
2940;SDS011;1480;51.456;6.670;2023-03-26T11:28:07;1.70;;;1.10;;
2940;SDS011;1480;51.456;6.670;2023-03-26T11:30:42;4.63;;;1.60;;
2940;SDS011;1480;51.456;6.670;2023-03-26T11:33:14;5.33;;;1.80;;
2940;SDS011;1480;51.456;6.670;2023-03-26T11:35:46;3.40;;;2.40;;
2940;SDS011;1480;51.456;6.670;2023-03-26T11:38:15;3.33;;;2.20;;
2940;SDS011;1480;51.456;6.670;2023-03-26T11:40:44;3.70;;;2.37;;
2940;SDS011;1480;51.456;6.670;2023-03-26T11:43:28;3.73;;;1.67;;
2940;SDS011;1480;51.456;6.670;2023-03-26T11:45:58;2.60;;;1.90;;
2940;SDS011;1480;51.456;6.670;2023-03-26T11:48:27;2.00;;;1.50;;
2940;SDS011;1480;51.456;6.670;2023-03-26T11:50:59;1.53;;;1.03;;
2940;SDS011;1480;51.456;6.670;2023-03-26T11:53:28;1.70;;;1.20;;
2940;SDS011;1480;51.456;6.670;2023-03-26T11:55:59;2.07;;;1.33;;
2940;SDS011;1480;51.456;6.670;2023-03-26T11:58:29;2.30;;;1.40;;
2940;SDS011;1480;51.456;6.670;2023-03-26T12:01:00;6.43;;;2.00;;
2940;SDS011;1480;51.456;6.670;2023-03-26T12:03:29;2.40;;;1.50;;
2940;SDS011;1480;51.456;6.670;2023-03-26T12:05:57;2.20;;;1.77;;
2940;SDS011;1480;51.456;6.670;2023-03-26T12:08:29;2.17;;;1.53;;
2940;SDS011;1480;51.456;6.670;2023-03-26T12:11:01;1.80;;;1.47;;
2940;SDS011;1480;51.456;6.670;2023-03-26T12:13:34;1.53;;;1.30;;
2940;SDS011;1480;51.456;6.670;2023-03-26T12:16:05;4.03;;;1.20;;
2940;SDS011;1480;51.456;6.670;2023-03-26T12:18:37;6.37;;;2.00;;
2940;SDS011;1480;51.456;6.670;2023-03-26T12:21:07;2.17;;;1.23;;
2940;SDS011;1480;51.456;6.670;2023-03-26T12:23:37;3.17;;;1.80;;
2940;SDS011;1480;51.456;6.670;2023-03-26T12:26:15;4.23;;;1.70;;
2940;SDS011;1480;51.456;6.670;2023-03-26T12:28:43;1.97;;;1.20;;
2940;SDS011;1480;51.456;6.670;2023-03-26T12:31:11;2.30;;;1.37;;
2940;SDS011;1480;51.456;6.670;2023-03-26T12:33:42;2.47;;;1.40;;
2940;SDS011;1480;51.456;6.670;2023-03-26T12:36:18;7.93;;;2.30;;
2940;SDS011;1480;51.456;6.670;2023-03-26T12:38:47;4.30;;;2.33;;
2940;SDS011;1480;51.456;6.670;2023-03-26T12:41:14;3.03;;;1.67;;
2940;SDS011;1480;51.456;6.670;2023-03-26T12:43:42;5.20;;;2.33;;
2940;SDS011;1480;51.456;6.670;2023-03-26T12:46:21;3.93;;;2.30;;
2940;SDS011;1480;51.456;6.670;2023-03-26T12:48:50;3.07;;;2.30;;
2940;SDS011;1480;51.456;6.670;2023-03-26T12:51:21;2.83;;;1.90;;
2940;SDS011;1480;51.456;6.670;2023-03-26T12:53:57;5.33;;;1.83;;
2940;SDS011;1480;51.456;6.670;2023-03-26T12:56:35;3.40;;;1.60;;
2940;SDS011;1480;51.456;6.670;2023-03-26T12:59:18;3.77;;;1.70;;
2940;SDS011;1480;51.456;6.670;2023-03-26T13:01:56;2.20;;;1.20;;
2940;SDS011;1480;51.456;6.670;2023-03-26T13:04:40;2.47;;;1.40;;
2940;SDS011;1480;51.456;6.670;2023-03-26T13:07:21;2.80;;;1.30;;
2940;SDS011;1480;51.456;6.670;2023-03-26T13:09:55;1.63;;;1.03;;
2940;SDS011;1480;51.456;6.670;2023-03-26T13:12:34;1.50;;;1.00;;
2940;SDS011;1480;51.456;6.670;2023-03-26T13:15:16;2.43;;;1.37;;
2940;SDS011;1480;51.456;6.670;2023-03-26T13:17:49;3.30;;;1.30;;
2940;SDS011;1480;51.456;6.670;2023-03-26T13:20:24;2.40;;;1.40;;
2940;SDS011;1480;51.456;6.670;2023-03-26T13:22:56;2.03;;;1.10;;
2940;SDS011;1480;51.456;6.670;2023-03-26T13:25:30;1.80;;;1.10;;
2940;SDS011;1480;51.456;6.670;2023-03-26T13:28:04;1.50;;;1.17;;
2940;SDS011;1480;51.456;6.670;2023-03-26T13:30:38;3.10;;;1.70;;
2940;SDS011;1480;51.456;6.670;2023-03-26T13:35:55;2.60;;;1.57;;
2940;SDS011;1480;51.456;6.670;2023-03-26T13:38:28;2.77;;;1.53;;
2940;SDS011;1480;51.456;6.670;2023-03-26T13:41:00;4.07;;;1.67;;
2940;SDS011;1480;51.456;6.670;2023-03-26T13:43:37;1.90;;;1.20;;
2940;SDS011;1480;51.456;6.670;2023-03-26T13:46:12;1.83;;;1.37;;
2940;SDS011;1480;51.456;6.670;2023-03-26T13:48:46;2.77;;;1.30;;
2940;SDS011;1480;51.456;6.670;2023-03-26T13:51:17;2.57;;;1.37;;
2940;SDS011;1480;51.456;6.670;2023-03-26T13:53:50;3.03;;;1.80;;
2940;SDS011;1480;51.456;6.670;2023-03-26T13:56:19;1.83;;;1.20;;
2940;SDS011;1480;51.456;6.670;2023-03-26T13:58:51;2.20;;;1.40;;
2940;SDS011;1480;51.456;6.670;2023-03-26T14:01:19;2.90;;;2.20;;
2940;SDS011;1480;51.456;6.670;2023-03-26T14:03:50;3.00;;;1.67;;
2940;SDS011;1480;51.456;6.670;2023-03-26T14:06:28;2.03;;;1.63;;
2940;SDS011;1480;51.456;6.670;2023-03-26T14:08:59;2.30;;;1.83;;
2940;SDS011;1480;51.456;6.670;2023-03-26T14:11:31;2.80;;;2.03;;
2940;SDS011;1480;51.456;6.670;2023-03-26T14:14:05;2.07;;;1.73;;
2940;SDS011;1480;51.456;6.670;2023-03-26T14:16:37;2.33;;;1.93;;
2940;SDS011;1480;51.456;6.670;2023-03-26T14:19:11;4.20;;;2.57;;
2940;SDS011;1480;51.456;6.670;2023-03-26T14:21:55;2.30;;;1.70;;
2940;SDS011;1480;51.456;6.670;2023-03-26T14:24:29;4.67;;;2.57;;
2940;SDS011;1480;51.456;6.670;2023-03-26T14:27:15;4.43;;;2.50;;
2940;SDS011;1480;51.456;6.670;2023-03-26T14:30:03;3.00;;;2.40;;
2940;SDS011;1480;51.456;6.670;2023-03-26T14:32:45;4.27;;;2.50;;
2940;SDS011;1480;51.456;6.670;2023-03-26T14:35:19;4.30;;;2.60;;
2940;SDS011;1480;51.456;6.670;2023-03-26T14:37:53;2.97;;;2.20;;
2940;SDS011;1480;51.456;6.670;2023-03-26T14:40:30;2.90;;;2.37;;
2940;SDS011;1480;51.456;6.670;2023-03-26T14:43:15;3.00;;;2.13;;
2940;SDS011;1480;51.456;6.670;2023-03-26T14:45:59;3.43;;;2.27;;
2940;SDS011;1480;51.456;6.670;2023-03-26T14:54:20;3.00;;;2.60;;
2940;SDS011;1480;51.456;6.670;2023-03-26T14:56:52;6.10;;;3.13;;
2940;SDS011;1480;51.456;6.670;2023-03-26T15:00:07;4.63;;;2.53;;
2940;SDS011;1480;51.456;6.670;2023-03-26T15:03:17;2.77;;;2.03;;
2940;SDS011;1480;51.456;6.670;2023-03-26T15:06:08;8.10;;;2.77;;
2940;SDS011;1480;51.456;6.670;2023-03-26T15:12:00;3.63;;;2.20;;
2940;SDS011;1480;51.456;6.670;2023-03-26T15:14:43;2.47;;;2.27;;
2940;SDS011;1480;51.456;6.670;2023-03-26T15:17:43;5.30;;;2.97;;
2940;SDS011;1480;51.456;6.670;2023-03-26T15:23:42;8.13;;;3.23;;
2940;SDS011;1480;51.456;6.670;2023-03-26T15:32:38;4.90;;;4.13;;
2940;SDS011;1480;51.456;6.670;2023-03-26T15:38:40;7.70;;;4.57;;
2940;SDS011;1480;51.456;6.670;2023-03-26T15:41:15;7.60;;;4.90;;
2940;SDS011;1480;51.456;6.670;2023-03-26T15:44:01;10.17;;;5.00;;
2940;SDS011;1480;51.456;6.670;2023-03-26T15:46:50;9.87;;;5.17;;
2940;SDS011;1480;51.456;6.670;2023-03-26T15:49:21;8.30;;;5.80;;
2940;SDS011;1480;51.456;6.670;2023-03-26T15:51:52;8.73;;;5.70;;
2940;SDS011;1480;51.456;6.670;2023-03-26T15:54:21;8.20;;;5.70;;
2940;SDS011;1480;51.456;6.670;2023-03-26T15:56:55;13.37;;;6.83;;
2940;SDS011;1480;51.456;6.670;2023-03-26T15:59:30;12.20;;;7.43;;
2940;SDS011;1480;51.456;6.670;2023-03-26T16:02:09;21.43;;;7.80;;
2940;SDS011;1480;51.456;6.670;2023-03-26T16:04:42;19.23;;;7.43;;
2940;SDS011;1480;51.456;6.670;2023-03-26T16:07:22;15.90;;;7.13;;
2940;SDS011;1480;51.456;6.670;2023-03-26T16:09:55;22.73;;;8.33;;
2940;SDS011;1480;51.456;6.670;2023-03-26T16:12:30;24.17;;;7.53;;
2940;SDS011;1480;51.456;6.670;2023-03-26T16:18:19;17.83;;;9.03;;
2940;SDS011;1480;51.456;6.670;2023-03-26T16:20:51;18.23;;;8.10;;
2940;SDS011;1480;51.456;6.670;2023-03-26T16:23:23;16.83;;;7.70;;
2940;SDS011;1480;51.456;6.670;2023-03-26T16:25:52;19.10;;;7.20;;
2940;SDS011;1480;51.456;6.670;2023-03-26T16:28:25;21.00;;;8.27;;
2940;SDS011;1480;51.456;6.670;2023-03-26T16:33:50;16.93;;;6.27;;
2940;SDS011;1480;51.456;6.670;2023-03-26T16:36:29;18.17;;;5.63;;
2940;SDS011;1480;51.456;6.670;2023-03-26T16:39:10;12.87;;;6.20;;
2940;SDS011;1480;51.456;6.670;2023-03-26T16:42:02;10.93;;;5.80;;
2940;SDS011;1480;51.456;6.670;2023-03-26T16:44:36;21.83;;;6.60;;
2940;SDS011;1480;51.456;6.670;2023-03-26T16:47:13;16.03;;;5.90;;
2940;SDS011;1480;51.456;6.670;2023-03-26T16:49:56;12.27;;;6.30;;
2940;SDS011;1480;51.456;6.670;2023-03-26T16:52:32;10.33;;;6.50;;